Meteo Giornale » Osservazioni meteo Egitto » Abu Simbel
ore: 05:00 - Osservazioni Meteo Abu Simbel
Lat. 22° 23' N Lon. 31° 37' E Alt. 188 metri s.l.m.
26 °C
Sereno
Temp. 24 Ore
25 °C
39 °C
Nord
7.4 Km/h
Dew point 14 °C
Umidità 47 %
Visibilità 10 Km
Il sole sorge alle ore 06:36
Il sole tramonta alle ore 19:10
| Data e Ora | Cielo e Fenomeni | T °C | DP °C | Um. % | Pres. hPa | Vis. km | Vento km/h | |
|---|---|---|---|---|---|---|---|---|
| Oggi h: 05:00 | Sereno | 26 | 14 | 47 | 1009 | 10 | N 7.4 | |
| Oggi h: 04:00 | Sereno | 27 | 13 | 42 | 1009 | 10 | NO 11.1 | |
| Oggi h: 03:00 | Sereno | 28 | 12 | 37 | 1009 | 10 | NO 7.4 | |
| Oggi h: 02:00 | Sereno | 26 | 10 | 36 | 1009 | 10 | N 0 | |
| Oggi h: 01:00 | Sereno | 27 | 8 | 30 | 1009 | 10 | N 0 | |
| Oggi h: 00:00 | Sereno | 28 | 10 | 32 | 1009 | 10 | N 0 | |
| Ieri h: 23:00 | Sereno | 31 | 7 | 22 | 1009 | 10 | NO 18.5 | |
| Ieri h: 22:00 | Sereno | 32 | 7 | 21 | 1009 | 10 | NO 14.8 | |
| Ieri h: 21:00 | Sereno | 33 | 8 | 21 | 1009 | 10 | NO 13 | |
| Ieri h: 20:00 | Sereno | 35 | 7 | 17 | 1008 | 10 | NO 18.5 | |
| Ieri h: 19:00 | Sereno | 36 | 8 | 18 | 1008 | 10 | NO 14.8 | |
| Ieri h: 18:00 | Sereno | 37 | 9 | 18 | 1008 | 10 | NO 11.1 | |
| Ieri h: 17:00 | Sereno | 39 | 11 | 18 | 1007 | 10 | N 11.1 | |
| Ieri h: 16:00 | Sereno | 38 | 10 | 18 | 1008 | 10 | NO 11.1 | |
| Ieri h: 15:00 | Sereno | 37 | 9 | 18 | 1008 | 10 | O/NO 7.4 | |
| Ieri h: 14:00 | Sereno | 36 | 7 | 16 | 1010 | 10 | N 18.5 | |
| Ieri h: 13:00 | Sereno | 35 | 8 | 19 | 1011 | 10 | N 22.2 | |
| Ieri h: 12:00 | Sereno | 34 | 9 | 21 | 1011 | 10 | N 20.3 | |
| Ieri h: 11:00 | Sereno | 32 | 11 | 27 | 1011 | 10 | N/NE 14.8 | |
| Ieri h: 10:00 | Sereno | 31 | 10 | 27 | 1011 | 10 | N/NE 11.1 | |
| Ieri h: 09:00 | Sereno | 30 | 11 | 30 | 1011 | 10 | N 9.3 | |
| Ieri h: 08:00 | Sereno | 27 | 6 | 26 | 1010 | 10 | N 0 | |
| Ieri h: 07:00 | Sereno | 25 | 8 | 33 | 1010 | 10 | N 0 | |



